Cotes De La Manche — FQBE — position and weather

sailwx.info

Track history (hours):
 
Tides and Currents Weather Stations Pressure Air Temp Water Temp Dewpoint Dewpoint Depression Visibility Wind Speed Wind Dir Waves Ship Positions

Cotes De La Manche

Last reported at 2017-Jul-25 06:21 UTC. Time now 2017-Jul-28 16:42 UTC.
Position N 43°35' W 001°33'.

Length 25 m; draft 3.7 m.

Type: . MMSI: 227091000.

Date/timePositionNaut miles runAvg speedWind from/ knotsBaromVisibWave heightAir tempDewpointWater temp
2017-Jul-25 06:21N 43°35' W 001°33'3 9.1
2017-Jul-25 06:00N 43°32' W 001°33'2 5.0
2017-Jul-25 05:31N 43°31' W 001°29'0 0.0
2017-Jul-24 07:46N 43°31' W 001°30'0 0.0
2017-Jul-23 18:05N 43°31' W 001°29'1 8.9
2017-Jul-23 17:59N 43°30' W 001°30'  
2017-Jul-20 14:36N 43°30' W 001°30'0 0.5
2017-Jul-20 14:01N 43°30' W 001°29'0 0.0
2017-Jul-20 13:30N 43°30' W 001°29'0 0.0
2017-Jul-20 13:00N 43°30' W 001°29'0 0.0
2017-Jul-20 12:30N 43°30' W 001°29'0 0.0
2017-Jul-20 12:01N 43°30' W 001°29'0 0.0
2017-Jul-20 11:31N 43°30' W 001°29'0 0.0
2017-Jul-20 11:00N 43°30' W 001°29'0 0.0
2017-Jul-20 10:31N 43°30' W 001°29'0 0.0
2017-Jul-20 10:00N 43°30' W 001°29'0 0.0
2017-Jul-20 09:31N 43°30' W 001°29'0 0.0
2017-Jul-20 09:00N 43°30' W 001°29'0 0.0
2017-Jul-20 08:30N 43°30' W 001°29'0 0.0
2017-Jul-20 08:00N 43°30' W 001°29'0 0.0
2017-Jul-20 07:26N 43°30' W 001°29'0 0.0
2017-Jul-20 06:30N 43°30' W 001°29'1 0.6
2017-Jul-20 05:32N 43°30' W 001°29'0 0.0
2017-Jul-20 03:20N 43°30' W 001°29'0 0.0
2017-Jul-20 02:54N 43°30' W 001°29'0 0.0
2017-Jul-20 02:20N 43°30' W 001°29'0 0.0
2017-Jul-20 01:50N 43°30' W 001°29'0 0.0
2017-Jul-20 01:30N 43°30' W 001°29'0 0.0
2017-Jul-20 00:59N 43°30' W 001°29'0 0.0
2017-Jul-20 00:30N 43°30' W 001°29'0 0.0
2017-Jul-19 23:58N 43°30' W 001°29'0 0.0
2017-Jul-19 23:30N 43°30' W 001°29'0 0.0
2017-Jul-19 23:00N 43°30' W 001°29'0 0.0
2017-Jul-19 22:27N 43°30' W 001°29'0 0.0
2017-Jul-19 21:57N 43°30' W 001°29'0 0.0
2017-Jul-19 21:30N 43°30' W 001°29'0 0.0
2017-Jul-19 20:59N 43°30' W 001°29'0 0.0
2017-Jul-19 20:28N 43°30' W 001°29'0 0.0
2017-Jul-19 19:59N 43°30' W 001°29'0 0.0
2017-Jul-19 19:27N 43°30' W 001°29'0 0.0
2017-Jul-19 19:00N 43°30' W 001°29'0 0.0
2017-Jul-19 18:30N 43°30' W 001°29'0 0.0
2017-Jul-19 18:00N 43°30' W 001°29'0 0.0
2017-Jul-19 17:28N 43°30' W 001°29'0 0.0
2017-Jul-19 17:00N 43°30' W 001°29'0 0.0
2017-Jul-19 16:29N 43°30' W 001°29'0 0.0
2017-Jul-19 16:00N 43°30' W 001°29'0 0.1
2017-Jul-19 15:26N 43°30' W 001°29'1 0.8
2017-Jul-19 14:18N 43°31' W 001°30'0 0.0
2017-Jul-19 13:54N 43°31' W 001°30'3 6.8
2017-Jul-19 13:29N 43°32' W 001°33'1 0.1
2017-Jul-19 05:59N 43°33' W 001°32'4 0.8
2017-Jul-19 01:10N 43°30' W 001°29'0 0.0
2017-Jul-18 16:18N 43°30' W 001°29'3 5.8
2017-Jul-18 15:51N 43°32' W 001°32'410.3
2017-Jul-18 15:26N 43°34' W 001°37'5 2.3
2017-Jul-18 13:09N 43°37' W 001°43'410.2
2017-Jul-18 12:43N 43°35' W 001°38'210.1
2017-Jul-18 12:30N 43°33' W 001°36'5 9.2
2017-Jul-18 11:59N 43°31' W 001°29'1 0.1
2017-Jul-17 22:51N 43°30' W 001°29'0 0.0
2017-Jul-17 17:11N 43°30' W 001°29'1 6.3
2017-Jul-17 17:00N 43°31' W 001°30'5 9.0
2017-Jul-17 16:25N 43°34' W 001°36'6 0.8
2017-Jul-17 07:50N 43°37' W 001°43'510.2
2017-Jul-17 07:23N 43°35' W 001°38'410.2
2017-Jul-17 07:00N 43°32' W 001°34'3 6.7
2017-Jul-17 06:30N 43°31' W 001°30'0 0.0
2017-Jul-16 16:20N 43°31' W 001°30'3 6.8
2017-Jul-16 15:54N 43°33' W 001°32'7 5.8
2017-Jul-16 14:47N 43°40' W 001°30'2 5.4
2017-Jul-16 14:28N 43°41' W 001°32'0 0.4
2017-Jul-16 14:00N 43°40' W 001°32'5 1.1
2017-Jul-16 08:56N 43°35' W 001°33'4 7.4
2017-Jul-16 08:25N 43°32' W 001°30'1 0.8
2017-Jul-16 07:06N 43°31' W 001°30'0 0.0
2017-Jul-16 07:00N 43°31' W 001°30'0 0.0
2017-Jul-16 06:28N 43°31' W 001°30'0 0.0
2017-Jul-16 03:29N 43°31' W 001°30'0 0.0
2017-Jul-16 02:52N 43°31' W 001°30'0 0.0
2017-Jul-16 01:40N 43°31' W 001°30'0 0.0
2017-Jul-16 01:21N 43°31' W 001°30'0 0.0
2017-Jul-16 00:55N 43°31' W 001°30'0 0.0
2017-Jul-15 16:48N 43°31' W 001°30'2 6.5
2017-Jul-15 16:30N 43°32' W 001°32'1 0.2
2017-Jul-15 08:03N 43°33' W 001°33'1 9.8
2017-Jul-15 07:56N 43°32' W 001°32'  
Track history (hours):
 
Tides and Currents Weather Stations Pressure Air Temp Water Temp Dewpoint Dewpoint Depression Visibility Wind Speed Wind Dir Waves Ship Positions

Cotes De La Manche

Last reported at 2017-Jul-25 06:21 UTC. Time now 2017-Jul-28 16:42 UTC.
Position N 43°35' W 001°33'.

Length 25 m; draft 3.7 m.

Type: . MMSI: 227091000.

Date/timePositionNaut miles runAvg speedWind from/ knotsBaromVisibWave heightAir tempDewpointWater temp
2017-Jul-25 06:21N 43°35' W 001°33'3 9.1
2017-Jul-25 06:00N 43°32' W 001°33'2 5.0
2017-Jul-25 05:31N 43°31' W 001°29'0 0.0
2017-Jul-24 07:46N 43°31' W 001°30'0 0.0
2017-Jul-23 18:05N 43°31' W 001°29'1 8.9
2017-Jul-23 17:59N 43°30' W 001°30'  
2017-Jul-20 14:36N 43°30' W 001°30'0 0.5
2017-Jul-20 14:01N 43°30' W 001°29'0 0.0
2017-Jul-20 13:30N 43°30' W 001°29'0 0.0
2017-Jul-20 13:00N 43°30' W 001°29'0 0.0
2017-Jul-20 12:30N 43°30' W 001°29'0 0.0
2017-Jul-20 12:01N 43°30' W 001°29'0 0.0
2017-Jul-20 11:31N 43°30' W 001°29'0 0.0
2017-Jul-20 11:00N 43°30' W 001°29'0 0.0
2017-Jul-20 10:31N 43°30' W 001°29'0 0.0
2017-Jul-20 10:00N 43°30' W 001°29'0 0.0
2017-Jul-20 09:31N 43°30' W 001°29'0 0.0
2017-Jul-20 09:00N 43°30' W 001°29'0 0.0
2017-Jul-20 08:30N 43°30' W 001°29'0 0.0
2017-Jul-20 08:00N 43°30' W 001°29'0 0.0
2017-Jul-20 07:26N 43°30' W 001°29'0 0.0
2017-Jul-20 06:30N 43°30' W 001°29'1 0.6
2017-Jul-20 05:32N 43°30' W 001°29'0 0.0
2017-Jul-20 03:20N 43°30' W 001°29'0 0.0
2017-Jul-20 02:54N 43°30' W 001°29'0 0.0
2017-Jul-20 02:20N 43°30' W 001°29'0 0.0
2017-Jul-20 01:50N 43°30' W 001°29'0 0.0
2017-Jul-20 01:30N 43°30' W 001°29'0 0.0
2017-Jul-20 00:59N 43°30' W 001°29'0 0.0
2017-Jul-20 00:30N 43°30' W 001°29'0 0.0
2017-Jul-19 23:58N 43°30' W 001°29'0 0.0
2017-Jul-19 23:30N 43°30' W 001°29'0 0.0
2017-Jul-19 23:00N 43°30' W 001°29'0 0.0
2017-Jul-19 22:27N 43°30' W 001°29'0 0.0
2017-Jul-19 21:57N 43°30' W 001°29'0 0.0
2017-Jul-19 21:30N 43°30' W 001°29'0 0.0
2017-Jul-19 20:59N 43°30' W 001°29'0 0.0
2017-Jul-19 20:28N 43°30' W 001°29'0 0.0
2017-Jul-19 19:59N 43°30' W 001°29'0 0.0
2017-Jul-19 19:27N 43°30' W 001°29'0 0.0
2017-Jul-19 19:00N 43°30' W 001°29'0 0.0
2017-Jul-19 18:30N 43°30' W 001°29'0 0.0
2017-Jul-19 18:00N 43°30' W 001°29'0 0.0
2017-Jul-19 17:28N 43°30' W 001°29'0 0.0
2017-Jul-19 17:00N 43°30' W 001°29'0 0.0
2017-Jul-19 16:29N 43°30' W 001°29'0 0.0
2017-Jul-19 16:00N 43°30' W 001°29'0 0.1
2017-Jul-19 15:26N 43°30' W 001°29'1 0.8
2017-Jul-19 14:18N 43°31' W 001°30'0 0.0
2017-Jul-19 13:54N 43°31' W 001°30'3 6.8
2017-Jul-19 13:29N 43°32' W 001°33'1 0.1
2017-Jul-19 05:59N 43°33' W 001°32'4 0.8
2017-Jul-19 01:10N 43°30' W 001°29'0 0.0
2017-Jul-18 16:18N 43°30' W 001°29'3 5.8
2017-Jul-18 15:51N 43°32' W 001°32'410.3
2017-Jul-18 15:26N 43°34' W 001°37'5 2.3
2017-Jul-18 13:09N 43°37' W 001°43'410.2
2017-Jul-18 12:43N 43°35' W 001°38'210.1
2017-Jul-18 12:30N 43°33' W 001°36'5 9.2
2017-Jul-18 11:59N 43°31' W 001°29'1 0.1
2017-Jul-17 22:51N 43°30' W 001°29'0 0.0
2017-Jul-17 17:11N 43°30' W 001°29'1 6.3
2017-Jul-17 17:00N 43°31' W 001°30'5 9.0
2017-Jul-17 16:25N 43°34' W 001°36'6 0.8
2017-Jul-17 07:50N 43°37' W 001°43'510.2
2017-Jul-17 07:23N 43°35' W 001°38'410.2
2017-Jul-17 07:00N 43°32' W 001°34'3 6.7
2017-Jul-17 06:30N 43°31' W 001°30'0 0.0
2017-Jul-16 16:20N 43°31' W 001°30'3 6.8
2017-Jul-16 15:54N 43°33' W 001°32'7 5.8
2017-Jul-16 14:47N 43°40' W 001°30'2 5.4
2017-Jul-16 14:28N 43°41' W 001°32'0 0.4
2017-Jul-16 14:00N 43°40' W 001°32'5 1.1
2017-Jul-16 08:56N 43°35' W 001°33'4 7.4
2017-Jul-16 08:25N 43°32' W 001°30'1 0.8
2017-Jul-16 07:06N 43°31' W 001°30'0 0.0
2017-Jul-16 07:00N 43°31' W 001°30'0 0.0
2017-Jul-16 06:28N 43°31' W 001°30'0 0.0
2017-Jul-16 03:29N 43°31' W 001°30'0 0.0
2017-Jul-16 02:52N 43°31' W 001°30'0 0.0
2017-Jul-16 01:40N 43°31' W 001°30'0 0.0
2017-Jul-16 01:21N 43°31' W 001°30'0 0.0
2017-Jul-16 00:55N 43°31' W 001°30'0 0.0
2017-Jul-15 16:48N 43°31' W 001°30'2 6.5
2017-Jul-15 16:30N 43°32' W 001°32'1 0.2
2017-Jul-15 08:03N 43°33' W 001°33'1 9.8
2017-Jul-15 07:56N 43°32' W 001°32'  

Dump ship's entire track history